createdAt,value
2023-01-26T00:01:46.825Z,100844.69
2023-01-26T00:04:14.577Z,100848.41
2023-01-26T00:06:42.480Z,100838.56
2023-01-26T00:09:17.070Z,100846.25
2023-01-26T00:11:45.114Z,100840.41
2023-01-26T00:14:12.685Z,100837.78
2023-01-26T00:16:40.980Z,100835.69
2023-01-26T00:19:08.605Z,100831.47
2023-01-26T00:21:36.498Z,100837.00
2023-01-26T00:24:04.811Z,100816.56
2023-01-26T00:26:32.873Z,100829.78
2023-01-26T00:29:01.565Z,100819.94
2023-01-26T00:31:29.631Z,100821.53
2023-01-26T00:33:57.684Z,100816.00
2023-01-26T00:36:26.015Z,100814.66
2023-01-26T00:38:53.584Z,100823.38
2023-01-26T00:41:39.977Z,100812.53
2023-01-26T00:44:07.741Z,100803.25
2023-01-26T00:46:36.069Z,100809.69
2023-01-26T00:49:03.630Z,100812.59
2023-01-26T00:51:31.405Z,100798.56
2023-01-26T00:53:59.121Z,100795.38
2023-01-26T00:56:28.228Z,100793.47
2023-01-26T00:58:56.036Z,100784.72
2023-01-26T01:01:23.957Z,100783.94
2023-01-26T01:03:52.229Z,100790.03
2023-01-26T01:06:20.256Z,100783.16
2023-01-26T01:08:47.866Z,100783.69
2023-01-26T01:11:15.841Z,100765.91
2023-01-26T01:13:43.543Z,100774.66
2023-01-26T01:16:15.357Z,100783.06
2023-01-26T01:18:43.429Z,100782.25
2023-01-26T01:21:15.118Z,100764.19
2023-01-26T01:23:43.910Z,100767.13
2023-01-26T01:26:12.180Z,100765.31
2023-01-26T01:28:40.678Z,100767.22
2023-01-26T01:31:13.237Z,100758.19
2023-01-26T01:33:42.181Z,100746.78
2023-01-26T01:36:15.100Z,100753.66
2023-01-26T01:38:44.296Z,100747.00
2023-01-26T01:41:13.061Z,100737.41
2023-01-26T01:43:41.169Z,100741.72
2023-01-26T01:46:35.190Z,100740.94
2023-01-26T01:49:24.200Z,100739.00
2023-01-26T01:52:06.151Z,100744.88
2023-01-26T01:54:44.951Z,100739.09
2023-01-26T01:57:28.608Z,100735.34
2023-01-26T02:00:09.393Z,100728.72
2023-01-26T02:03:09.288Z,100727.38
2023-01-26T02:05:51.224Z,100717.22
2023-01-26T02:08:22.349Z,100714.75
2023-01-26T02:10:55.770Z,100704.34
2023-01-26T02:13:25.983Z,100716.03
2023-01-26T02:15:54.695Z,100704.84
2023-01-26T02:18:22.758Z,100702.59
2023-01-26T02:21:00.689Z,100699.38
2023-01-26T02:24:12.885Z,100697.41
2023-01-26T02:26:40.719Z,100703.34
2023-01-26T02:29:11.595Z,100700.16
2023-01-26T02:31:43.754Z,100689.09
2023-01-26T02:34:11.752Z,100693.94
2023-01-26T02:36:39.599Z,100689.69
2023-01-26T02:40:01.951Z,100673.56
2023-01-26T02:42:38.706Z,100677.56
2023-01-26T02:45:17.342Z,100669.38
2023-01-26T02:47:46.787Z,100666.41
2023-01-26T02:50:15.472Z,100672.16
2023-01-26T02:52:44.835Z,100658.56
2023-01-26T02:55:25.261Z,100656.34
2023-01-26T02:57:59.479Z,100651.38
2023-01-26T03:00:37.399Z,100647.09
2023-01-26T03:03:26.751Z,100638.38
2023-01-26T03:05:54.589Z,100649.00
2023-01-26T03:08:22.141Z,100642.97
2023-01-26T03:10:50.013Z,100644.31
2023-01-26T03:13:18.660Z,100642.81
2023-01-26T03:15:52.750Z,100632.53
2023-01-26T03:18:42.029Z,100631.75
2023-01-26T03:21:34.045Z,100636.47
2023-01-26T03:24:20.891Z,100616.16
2023-01-26T03:27:08.386Z,100607.44
2023-01-26T03:29:36.500Z,100613.34
2023-01-26T03:32:04.825Z,100608.53
2023-01-26T03:34:33.522Z,100603.72
2023-01-26T03:37:01.479Z,100600.56
2023-01-26T03:39:59.553Z,100606.22
2023-01-26T03:42:46.696Z,100591.50
2023-01-26T03:45:33.431Z,100589.81
2023-01-26T03:48:29.990Z,100586.88
2023-01-26T03:51:17.007Z,100588.44
2023-01-26T03:54:03.907Z,100583.41
2023-01-26T03:56:34.630Z,100574.16
2023-01-26T03:59:12.330Z,100591.16
2023-01-26T04:02:04.509Z,100581.97
2023-01-26T04:04:52.068Z,100575.94
2023-01-26T04:07:41.987Z,100576.94
2023-01-26T04:10:10.974Z,100576.38
2023-01-26T04:12:38.817Z,100577.81
2023-01-26T04:15:37.007Z,100567.78
2023-01-26T04:18:27.406Z,100560.47
2023-01-26T04:21:15.175Z,100578.41
2023-01-26T04:23:44.858Z,100571.94
2023-01-26T04:26:12.819Z,100566.06
2023-01-26T04:28:41.238Z,100558.59
2023-01-26T04:31:09.742Z,100556.66
2023-01-26T04:33:38.583Z,100549.56
2023-01-26T04:36:08.622Z,100555.31
2023-01-26T04:38:39.839Z,100565.22
2023-01-26T04:41:08.027Z,100566.41
2023-01-26T04:43:42.577Z,100568.09
2023-01-26T04:46:11.290Z,100556.44
2023-01-26T04:48:40.946Z,100565.28
2023-01-26T04:51:22.218Z,100555.09
2023-01-26T04:53:51.253Z,100558.50
2023-01-26T04:56:29.513Z,100559.25
2023-01-26T04:59:06.375Z,100558.16
2023-01-26T05:01:36.684Z,100558.72
2023-01-26T05:04:07.932Z,100547.69
2023-01-26T05:06:39.037Z,100538.81
2023-01-26T05:09:06.555Z,100545.47
2023-01-26T05:11:36.736Z,100545.31
2023-01-26T05:14:19.271Z,100535.13
2023-01-26T05:17:11.262Z,100538.06
2023-01-26T05:20:05.373Z,100544.16
2023-01-26T05:22:41.565Z,100534.56
2023-01-26T05:25:29.281Z,100525.50
2023-01-26T05:28:06.597Z,100536.63
2023-01-26T05:30:34.365Z,100538.38
2023-01-26T05:33:08.149Z,100540.19
2023-01-26T05:35:36.237Z,100540.38
2023-01-26T05:38:05.870Z,100532.09
2023-01-26T05:40:34.738Z,100532.75
2023-01-26T05:43:02.708Z,100530.03
2023-01-26T05:45:48.768Z,100533.13
2023-01-26T05:48:18.005Z,100535.75
2023-01-26T05:50:47.433Z,100541.88
2023-01-26T05:53:18.193Z,100547.03
2023-01-26T05:55:46.280Z,100534.28
2023-01-26T05:58:14.736Z,100541.84
2023-01-26T06:00:42.351Z,100544.41
2023-01-26T06:03:17.111Z,100549.09
2023-01-26T06:05:52.031Z,100552.19
2023-01-26T06:08:24.548Z,100551.66
2023-01-26T06:11:24.865Z,100547.78
2023-01-26T06:14:11.439Z,100539.47
2023-01-26T06:16:39.407Z,100552.06
2023-01-26T06:19:10.954Z,100537.06
2023-01-26T06:21:40.247Z,100541.59
2023-01-26T06:24:08.451Z,100533.69
2023-01-26T06:26:36.220Z,100531.31
2023-01-26T06:29:04.162Z,100535.84
2023-01-26T06:31:37.363Z,100535.66
2023-01-26T06:34:06.706Z,100532.03
2023-01-26T06:36:39.183Z,100544.75
2023-01-26T06:39:11.674Z,100540.84
2023-01-26T06:41:42.379Z,100550.41
2023-01-26T06:44:10.875Z,100549.13
2023-01-26T06:46:39.565Z,100543.22
2023-01-26T06:49:07.633Z,100547.34
2023-01-26T06:51:48.109Z,100550.41
2023-01-26T06:54:17.200Z,100559.19
2023-01-26T06:57:01.303Z,100551.91
2023-01-26T06:59:50.304Z,100549.31
2023-01-26T07:02:23.662Z,100561.00
2023-01-26T07:04:52.613Z,100570.59
2023-01-26T07:07:20.205Z,100567.94
2023-01-26T07:09:48.293Z,100561.63
2023-01-26T07:12:15.909Z,100574.84
2023-01-26T07:14:43.872Z,100563.50
2023-01-26T07:17:54.192Z,100556.88
2023-01-26T07:21:25.066Z,100559.09
2023-01-26T07:23:53.438Z,100555.94
2023-01-26T07:26:21.521Z,100552.47
2023-01-26T07:28:49.260Z,100546.88
2023-01-26T07:31:17.528Z,100546.16
2023-01-26T07:33:45.227Z,100553.38
2023-01-26T07:36:13.067Z,100544.06
2023-01-26T07:38:41.671Z,100545.66
2023-01-26T07:41:12.999Z,100544.84
2023-01-26T07:43:42.271Z,100546.22
2023-01-26T07:46:32.279Z,100543.84
2023-01-26T07:49:04.880Z,100539.25
2023-01-26T07:51:44.764Z,100542.09
2023-01-26T07:54:39.555Z,100546.28
2023-01-26T07:57:09.226Z,100540.13
2023-01-26T07:59:36.941Z,100538.59
2023-01-26T08:02:04.838Z,100534.19
2023-01-26T08:04:32.465Z,100538.19
2023-01-26T08:07:00.558Z,100538.53
2023-01-26T08:09:28.208Z,100543.59
2023-01-26T08:11:59.503Z,100536.50
2023-01-26T08:14:38.198Z,100540.56
2023-01-26T08:17:13.186Z,100535.91
2023-01-26T08:19:40.684Z,100530.66
2023-01-26T08:22:08.618Z,100534.69
2023-01-26T08:24:36.175Z,100533.16
2023-01-26T08:27:04.557Z,100531.38
2023-01-26T08:29:32.175Z,100522.09
2023-01-26T08:32:00.188Z,100527.47
2023-01-26T08:34:27.868Z,100520.09
2023-01-26T08:36:55.907Z,100523.22
2023-01-26T08:39:23.490Z,100517.38
2023-01-26T08:41:51.468Z,100526.91
2023-01-26T08:44:19.183Z,100526.41
2023-01-26T08:46:47.259Z,100524.03
2023-01-26T08:49:15.045Z,100530.69
2023-01-26T08:51:43.252Z,100519.75
2023-01-26T08:54:10.773Z,100526.28
2023-01-26T08:56:38.919Z,100525.78
2023-01-26T08:59:06.551Z,100528.72
2023-01-26T09:01:34.572Z,100529.22
2023-01-26T09:04:03.104Z,100514.09
2023-01-26T09:06:33.163Z,100518.91
2023-01-26T09:09:00.967Z,100520.16
2023-01-26T09:11:29.159Z,100521.97
2023-01-26T09:13:56.972Z,100518.06
2023-01-26T09:16:25.591Z,100524.13
2023-01-26T09:18:54.276Z,100523.84
2023-01-26T09:21:24.281Z,100524.56
2023-01-26T09:23:52.822Z,100516.53
2023-01-26T09:26:20.926Z,100516.41
2023-01-26T09:28:53.114Z,100512.41
2023-01-26T09:31:21.674Z,100518.53
2023-01-26T09:33:50.860Z,100506.78
2023-01-26T09:36:19.526Z,100497.94
2023-01-26T09:38:47.277Z,100502.38
2023-01-26T09:41:42.909Z,100495.63
2023-01-26T09:44:24.945Z,100489.28
2023-01-26T09:47:01.425Z,100489.91
2023-01-26T09:49:51.596Z,100491.81
2023-01-26T09:52:35.471Z,100486.66
2023-01-26T09:55:15.964Z,100485.69
2023-01-26T09:57:50.803Z,100492.13
2023-01-26T10:00:31.301Z,100477.78
2023-01-26T10:03:29.410Z,100477.50
2023-01-26T10:06:13.565Z,100482.63
2023-01-26T10:09:08.560Z,100479.31
2023-01-26T10:11:51.095Z,100455.13
2023-01-26T10:14:44.516Z,100458.72
2023-01-26T10:17:22.158Z,100460.28
2023-01-26T10:19:57.269Z,100452.03
2023-01-26T10:22:44.883Z,100447.56
2023-01-26T10:25:21.490Z,100440.22
2023-01-26T10:27:49.032Z,100433.22
2023-01-26T10:30:19.813Z,100423.03
2023-01-26T10:32:52.813Z,100423.50
2023-01-26T10:35:24.666Z,100422.44
2023-01-26T10:37:53.313Z,100414.97
2023-01-26T10:40:21.779Z,100413.31
2023-01-26T10:43:01.876Z,100414.72
2023-01-26T10:45:33.526Z,100412.97
2023-01-26T10:48:19.734Z,100406.06
2023-01-26T10:50:48.705Z,100401.91
2023-01-26T10:53:24.771Z,100396.09
2023-01-26T10:56:16.068Z,100387.47
2023-01-26T10:58:47.406Z,100389.53
2023-01-26T11:01:18.748Z,100377.34
2023-01-26T11:04:10.323Z,100383.13
2023-01-26T11:06:38.922Z,100384.22
2023-01-26T11:09:31.842Z,100369.16
2023-01-26T11:12:08.446Z,100363.56
2023-01-26T11:14:36.163Z,100354.72
2023-01-26T11:17:37.329Z,100351.56
2023-01-26T11:20:31.152Z,100341.53
2023-01-26T11:23:07.850Z,100342.69
2023-01-26T11:26:17.048Z,100343.91
2023-01-26T11:29:15.504Z,100344.78
2023-01-26T11:32:04.089Z,100342.41
2023-01-26T11:34:54.272Z,100336.81
2023-01-26T11:37:48.669Z,100335.81
2023-01-26T11:40:35.152Z,100330.28
2023-01-26T11:43:32.924Z,100327.72
2023-01-26T11:46:25.295Z,100328.91
2023-01-26T11:49:34.746Z,100318.09
2023-01-26T11:52:44.227Z,100314.16
2023-01-26T11:55:42.669Z,100308.25
2023-01-26T11:58:48.307Z,100307.56
2023-01-26T12:01:41.556Z,100302.56
2023-01-26T12:04:20.146Z,100316.31
2023-01-26T12:07:03.687Z,100307.09
2023-01-26T12:09:42.792Z,100309.22
2023-01-26T12:12:43.182Z,100297.25
2023-01-26T12:15:32.300Z,100291.75
2023-01-26T12:18:17.385Z,100294.50
2023-01-26T12:20:58.920Z,100299.81
2023-01-26T12:23:51.376Z,100289.09
2023-01-26T12:26:23.272Z,100281.41
2023-01-26T12:29:27.909Z,100278.06
2023-01-26T12:32:11.200Z,100275.59
2023-01-26T12:34:38.850Z,100274.41
2023-01-26T12:37:24.579Z,100268.69
2023-01-26T12:40:50.434Z,100264.34
2023-01-26T12:43:44.591Z,100270.84
2023-01-26T12:46:14.158Z,100264.25
2023-01-26T12:49:17.376Z,100262.38
2023-01-26T12:51:53.867Z,100259.81
2023-01-26T12:54:45.611Z,100261.13
2023-01-26T12:57:21.221Z,100256.13
2023-01-26T12:59:50.169Z,100253.56
2023-01-26T13:02:27.358Z,100253.75
2023-01-26T13:05:01.670Z,100255.81
2023-01-26T13:07:37.315Z,100258.78
2023-01-26T13:10:28.003Z,100255.63
2023-01-26T13:13:20.971Z,100261.41
2023-01-26T13:16:15.401Z,100260.06
2023-01-26T13:18:52.037Z,100256.75
2023-01-26T13:21:38.402Z,100255.47
2023-01-26T13:24:17.947Z,100248.75
2023-01-26T13:26:59.684Z,100250.72
2023-01-26T13:29:32.952Z,100246.34
2023-01-26T13:32:20.793Z,100242.47
2023-01-26T13:34:54.584Z,100236.69
2023-01-26T13:37:36.722Z,100238.56
2023-01-26T13:40:20.468Z,100238.25
2023-01-26T13:43:26.754Z,100231.28
2023-01-26T13:46:26.936Z,100235.53
2023-01-26T13:48:57.066Z,100231.38
2023-01-26T13:51:29.078Z,100228.22
2023-01-26T13:54:04.536Z,100231.75
2023-01-26T13:57:05.160Z,100227.25
2023-01-26T13:59:34.158Z,100228.31
2023-01-26T14:02:01.732Z,100230.47
2023-01-26T14:04:32.328Z,100234.38
2023-01-26T14:07:19.020Z,100223.50
2023-01-26T14:09:55.918Z,100223.00
2023-01-26T14:12:47.163Z,100223.09
2023-01-26T14:15:30.870Z,100226.81
2023-01-26T14:18:05.210Z,100215.13
2023-01-26T14:20:40.217Z,100217.78
2023-01-26T14:23:19.097Z,100214.66
2023-01-26T14:26:01.097Z,100204.03
2023-01-26T14:28:34.792Z,100205.19
2023-01-26T14:31:13.066Z,100206.78
2023-01-26T14:33:40.882Z,100203.63
2023-01-26T14:36:17.560Z,100209.41
2023-01-26T14:38:48.884Z,100199.69
2023-01-26T14:41:19.666Z,100200.75
2023-01-26T14:43:51.493Z,100205.75
2023-01-26T14:46:42.226Z,100199.97
2023-01-26T14:49:42.862Z,100211.66
2023-01-26T14:52:30.561Z,100206.91
2023-01-26T14:55:04.575Z,100205.84
2023-01-26T14:57:32.890Z,100211.94
2023-01-26T15:00:02.610Z,100212.22
2023-01-26T15:02:42.790Z,100200.25
2023-01-26T15:05:23.576Z,100200.44
2023-01-26T15:08:03.687Z,100198.41
2023-01-26T15:10:43.263Z,100202.31
2023-01-26T15:13:11.173Z,100195.97
2023-01-26T15:15:43.146Z,100198.59
2023-01-26T15:18:13.985Z,100193.81
2023-01-26T15:20:51.183Z,100186.34
2023-01-26T15:23:29.222Z,100197.44
2023-01-26T15:26:23.939Z,100190.88
2023-01-26T15:28:54.474Z,100186.72
2023-01-26T15:31:36.338Z,100188.28
2023-01-26T15:34:06.593Z,100184.25
2023-01-26T15:36:54.575Z,100178.81
2023-01-26T15:39:22.481Z,100183.25
2023-01-26T15:42:15.741Z,100190.53
2023-01-26T15:44:43.819Z,100187.97
2023-01-26T15:47:13.916Z,100190.13
2023-01-26T15:49:42.936Z,100188.25
2023-01-26T15:52:24.896Z,100190.13
2023-01-26T15:54:53.976Z,100193.22
2023-01-26T15:57:21.599Z,100186.78
2023-01-26T15:59:49.667Z,100184.50
2023-01-26T16:02:21.517Z,100186.44
2023-01-26T16:04:49.689Z,100185.75
2023-01-26T16:07:19.509Z,100189.25
2023-01-26T16:09:49.265Z,100191.69
2023-01-26T16:12:33.514Z,100191.47
2023-01-26T16:15:02.067Z,100189.44
2023-01-26T16:17:30.029Z,100197.69
2023-01-26T16:19:57.971Z,100196.41
2023-01-26T16:22:25.605Z,100200.13
2023-01-26T16:24:53.770Z,100197.47
2023-01-26T16:27:21.765Z,100195.88
2023-01-26T16:29:49.725Z,100199.06
2023-01-26T16:32:29.055Z,100214.63
2023-01-26T16:34:57.200Z,100212.06
2023-01-26T16:37:24.880Z,100206.03
2023-01-26T16:39:53.316Z,100201.03
2023-01-26T16:42:21.779Z,100206.38
2023-01-26T16:44:50.042Z,100210.34
2023-01-26T16:47:17.585Z,100204.03
2023-01-26T16:49:45.563Z,100208.31
2023-01-26T16:52:13.030Z,100212.84
2023-01-26T16:54:40.796Z,100210.63
2023-01-26T16:57:09.096Z,100209.88
2023-01-26T16:59:36.970Z,100209.56
2023-01-26T17:02:04.734Z,100206.34
2023-01-26T17:04:32.629Z,100199.84
2023-01-26T17:07:00.198Z,100212.38
2023-01-26T17:09:28.691Z,100215.06
2023-01-26T17:11:56.317Z,100210.34
2023-01-26T17:14:24.572Z,100205.09
2023-01-26T17:16:52.238Z,100208.81
2023-01-26T17:19:21.185Z,100200.88
2023-01-26T17:21:52.296Z,100199.88
2023-01-26T17:24:20.602Z,100196.13
2023-01-26T17:26:48.300Z,100184.78
2023-01-26T17:29:16.240Z,100181.84
2023-01-26T17:31:43.830Z,100179.19
2023-01-26T17:34:12.523Z,100178.13
2023-01-26T17:36:40.194Z,100165.91
2023-01-26T17:39:10.178Z,100160.66
2023-01-26T17:41:37.653Z,100162.53
2023-01-26T17:44:05.416Z,100157.53
2023-01-26T17:46:32.879Z,100157.47
2023-01-26T17:49:00.647Z,100153.84
2023-01-26T17:51:28.201Z,100148.56
2023-01-26T17:53:56.321Z,100153.34
2023-01-26T17:56:24.971Z,100145.97
2023-01-26T17:58:57.013Z,100144.91
2023-01-26T18:01:26.211Z,100156.84
2023-01-26T18:03:53.992Z,100145.97
2023-01-26T18:06:21.870Z,100134.13
2023-01-26T18:08:49.705Z,100140.13
2023-01-26T18:11:17.896Z,100135.31
2023-01-26T18:13:45.687Z,100136.91
2023-01-26T18:16:20.122Z,100134.75
2023-01-26T18:18:48.741Z,100135.31
2023-01-26T18:21:27.126Z,100136.13
2023-01-26T18:23:59.977Z,100141.63
2023-01-26T18:26:34.378Z,100138.50
2023-01-26T18:29:03.337Z,100128.41
2023-01-26T18:31:37.366Z,100124.66
2023-01-26T18:34:05.458Z,100129.41
2023-01-26T18:36:33.036Z,100124.59
2023-01-26T18:39:08.775Z,100124.53
2023-01-26T18:41:36.346Z,100120.31
2023-01-26T18:44:04.437Z,100115.03
2023-01-26T18:46:32.114Z,100120.31
2023-01-26T18:49:03.600Z,100107.38
2023-01-26T18:51:34.916Z,100110.38
2023-01-26T18:54:04.319Z,100106.50
2023-01-26T18:56:32.584Z,100105.72
2023-01-26T18:59:00.425Z,100110.28
2023-01-26T19:01:28.063Z,100109.22
2023-01-26T19:03:57.893Z,100109.00
2023-01-26T19:06:26.762Z,100101.63
2023-01-26T19:09:04.982Z,100106.84
2023-01-26T19:11:36.134Z,100101.47
2023-01-26T19:14:06.006Z,100096.16
2023-01-26T19:16:35.199Z,100098.28
2023-01-26T19:19:03.088Z,100098.69
2023-01-26T19:21:33.657Z,100093.69
2023-01-26T19:24:07.928Z,100085.75
2023-01-26T19:26:35.924Z,100087.88
2023-01-26T19:29:04.489Z,100079.44
2023-01-26T19:31:35.147Z,100073.44
2023-01-26T19:34:06.639Z,100081.09
2023-01-26T19:36:36.711Z,100077.38
2023-01-26T19:39:05.801Z,100075.22
2023-01-26T19:41:35.276Z,100072.06
2023-01-26T19:44:02.796Z,100070.53
2023-01-26T19:46:30.807Z,100068.38
2023-01-26T19:48:58.276Z,100068.59
2023-01-26T19:51:27.416Z,100062.50
2023-01-26T19:53:58.572Z,100070.88
2023-01-26T19:56:35.134Z,100069.38
2023-01-26T19:59:07.861Z,100069.38
2023-01-26T20:01:37.192Z,100064.28
2023-01-26T20:04:13.932Z,100059.19
2023-01-26T20:06:42.749Z,100060.22
2023-01-26T20:09:10.824Z,100054.84
2023-01-26T20:11:38.776Z,100056.00
2023-01-26T20:14:10.000Z,100055.22
2023-01-26T20:16:38.354Z,100056.84
2023-01-26T20:19:06.399Z,100060.28
2023-01-26T20:21:35.701Z,100050.97
2023-01-26T20:24:06.126Z,100053.56
2023-01-26T20:26:36.064Z,100057.22
2023-01-26T20:29:05.149Z,100051.94
2023-01-26T20:31:33.839Z,100050.56
2023-01-26T20:34:02.179Z,100046.28
2023-01-26T20:36:31.514Z,100041.00
2023-01-26T20:38:59.333Z,100041.56
2023-01-26T20:41:30.749Z,100045.47
2023-01-26T20:44:03.603Z,100047.06
2023-01-26T20:46:40.853Z,100041.56
2023-01-26T20:49:16.105Z,100044.91
2023-01-26T20:51:46.459Z,100045.47
2023-01-26T20:54:15.651Z,100042.91
2023-01-26T20:56:45.842Z,100040.81
2023-01-26T20:59:13.676Z,100042.91
2023-01-26T21:01:41.528Z,100044.50
2023-01-26T21:04:09.117Z,100043.41
2023-01-26T21:06:37.645Z,100044.50
2023-01-26T21:09:05.585Z,100040.69
2023-01-26T21:11:34.270Z,100032.16
2023-01-26T21:14:02.641Z,100039.63
2023-01-26T21:16:33.009Z,100040.19
2023-01-26T21:19:00.638Z,100047.06
2023-01-26T21:21:28.851Z,100047.84
2023-01-26T21:23:56.638Z,100038.63
2023-01-26T21:26:44.924Z,100034.69
2023-01-26T21:29:17.126Z,100033.97
2023-01-26T21:32:03.243Z,100019.16
2023-01-26T21:34:34.798Z,100028.97
2023-01-26T21:37:05.267Z,100027.59
2023-01-26T21:40:14.606Z,100035.19
2023-01-26T21:43:16.546Z,100038.09
2023-01-26T21:46:28.135Z,100030.16
2023-01-26T21:49:47.001Z,100032.31
2023-01-26T21:52:58.581Z,100018.38
2023-01-26T21:55:53.327Z,100021.25
2023-01-26T21:59:05.212Z,100012.81
2023-01-26T22:01:40.656Z,100009.34
2023-01-26T22:04:58.069Z,100007.88
2023-01-26T22:08:21.810Z,99986.00
2023-01-26T22:15:09.345Z,99964.59
2023-01-26T22:18:16.885Z,99960.31
2023-01-26T22:22:03.294Z,99956.81
2023-01-26T22:25:50.817Z,99942.31
2023-01-26T22:28:56.541Z,99936.00
2023-01-26T22:32:08.884Z,99931.53
2023-01-26T22:34:45.444Z,99925.31
2023-01-26T22:37:14.825Z,99927.88
2023-01-26T22:39:54.492Z,99927.38
2023-01-26T22:42:37.798Z,99942.59
2023-01-26T22:45:22.225Z,99935.75
2023-01-26T22:48:00.758Z,99937.09
2023-01-26T22:50:44.222Z,99933.53
2023-01-26T22:53:26.573Z,99936.69
2023-01-26T22:56:25.452Z,99930.00
2023-01-26T22:59:09.743Z,99931.94
2023-01-26T23:01:51.355Z,99937.16
2023-01-26T23:04:28.238Z,99939.38
2023-01-26T23:07:05.689Z,99936.25
2023-01-26T23:09:43.441Z,99937.88
2023-01-26T23:12:12.028Z,99942.66
2023-01-26T23:14:39.909Z,99937.94
2023-01-26T23:17:08.322Z,99935.38
2023-01-26T23:19:36.454Z,99932.72
2023-01-26T23:22:04.681Z,99933.22
2023-01-26T23:24:32.636Z,99931.59
2023-01-26T23:27:00.307Z,99930.16
2023-01-26T23:29:28.269Z,99926.44
2023-01-26T23:36:19.128Z,99932.50
2023-01-26T23:38:54.491Z,99934.09
2023-01-26T23:41:23.392Z,99933.09
2023-01-26T23:43:52.199Z,99928.38
2023-01-26T23:47:00.577Z,99933.31
2023-01-26T23:49:38.748Z,99920.81
2023-01-26T23:53:28.478Z,99921.72
2023-01-26T23:56:18.208Z,99923.16
2023-01-26T23:58:46.904Z,99919.50
